Alvord, TX

6:42 AM CDT on September 18, 2014 (GMT -0500)
2 Miles South of Alvord | Change Station
CLOSE
Current Station
Personal Weather Station
Location: Alvord, TX
Elevation: 853 ft
Nearby Weather Stations

Elev 853 ft 33.33 °N, 97.70 °W | Updated 15 minutes ago

Partly Cloudy
Partly Cloudy
71.8 °F
Feels Like 71.8 °F
N
2.2
Wind Variable Wind from East

Today
High -- | Low -- °F
--% Chance of Precip.
Yesterday
High -- | Low -- °F
Precip. -- in
7:16 AM 7:32 PM
Waning Crescent, 28% visible
Pressure 29.90 in
Visibility 7.0 miles
Clouds Clear
Dew Point 72 °F
Humidity 99%
Rainfall 0.00 in
Snow Depth Not available.
UV 0 out of 12
Pollen 8.10 out of 12
Ozone Good
PM2.5 Good
Flu Activity Not available.
METAR KLUD 181135Z AUTO 09003KT 7SM CLR 22/21 A2990 RMK AO2 T02160213

More Conditions Fewer Conditions

Pressure 29.90 in
Visibility 7.0 miles
Clouds Clear
Dew Point 72 °F
Humidity 99%
Rainfall 0.00 in
Snow Depth Not available.
UV 0 out of 12
Pollen 8.10 out of 12
Ozone Good
PM2.5 Good
Flu Activity Not available.
METAR KLUD 181135Z AUTO 09003KT 7SM CLR 22/21 A2990 RMK AO2 T02160213

More Conditions Fewer Conditions

10-Day Weather Forecast

Almanac

Astronomy

Sep. 18, 2014 Rise Set
Actual Time 7:16 AM CDT 7:32 PM CDT
Civil Twilight 6:51 AM CDT 7:57 PM CDT
Nautical Twilight 6:22 AM CDT 8:26 PM CDT
Astronomical Twilight 5:52 AM CDT 8:56 PM CDT
Moon 2:21 AM CDT 4:14 PM CDT
Length of Visible Light 13h 06m
Length of Day
12h 16m
Tomorrow will be 2m 2s shorter.
Waning Crescent, 28% of the Moon is Illuminated
Today
Waning Crescent
Sep 24
New
Oct 1
First Quarter
Oct 8
Full
Oct 15
Last Quarter

Today's Extremes

State Highs State Lows

Community

WunderPhotos

Upload Photos

1,754,324 photos uploaded!

Nearby

Air Quality

  Air Quality AQ Index Pollutant
Yesterday Good
OZONE
Yesterday Good
PM2.5
Current Good
PM2.5
Current Good
OZONE
Thursday Good
OZONE
Thursday Good
PM10
Friday Good
OZONE
Friday Good
PM10
Saturday Good
OZONE
Saturday Good
PM10

Snow Depth

Station Depth Elevation
No new snow has been reported.

Earthquake Activity

City Distance Mag. Time & Date
No recent earthquake activity has been reported nearby.
Minimum magnitude displayed is 2.5.

Coastal Water Temperatures

Place Temperature
No Stations Reporting

Nearby Weather Stations